sensor_id;sensor_type;location;lat;lon;timestamp;pressure;altitude;pressure_sealevel;temperature;humidity
46782;BME280;32541;46.298;11.506;2022-08-19T00:01:26;89248.44;;;14.81;100.00
46782;BME280;32541;46.298;11.506;2022-08-19T00:03:52;89259.81;;;14.87;100.00
46782;BME280;32541;46.298;11.506;2022-08-19T00:06:17;89255.81;;;14.90;100.00
46782;BME280;32541;46.298;11.506;2022-08-19T00:08:43;89256.56;;;14.90;100.00
46782;BME280;32541;46.298;11.506;2022-08-19T00:11:09;89250.47;;;14.94;100.00
46782;BME280;32541;46.298;11.506;2022-08-19T00:13:34;89261.56;;;14.94;100.00
46782;BME280;32541;46.298;11.506;2022-08-19T00:16:00;89269.84;;;14.94;100.00
46782;BME280;32541;46.298;11.506;2022-08-19T00:18:27;89281.06;;;14.96;100.00
46782;BME280;32541;46.298;11.506;2022-08-19T00:20:52;89290.91;;;14.99;100.00
46782;BME280;32541;46.298;11.506;2022-08-19T00:23:18;89292.75;;;15.08;100.00
46782;BME280;32541;46.298;11.506;2022-08-19T00:25:44;89289.03;;;15.03;100.00
46782;BME280;32541;46.298;11.506;2022-08-19T00:28:09;89289.56;;;15.00;100.00
46782;BME280;32541;46.298;11.506;2022-08-19T00:30:35;89302.16;;;15.03;100.00
46782;BME280;32541;46.298;11.506;2022-08-19T00:33:00;89309.66;;;15.00;100.00
46782;BME280;32541;46.298;11.506;2022-08-19T00:35:26;89331.31;;;15.04;100.00
46782;BME280;32541;46.298;11.506;2022-08-19T00:37:52;89320.22;;;15.04;100.00
46782;BME280;32541;46.298;11.506;2022-08-19T00:40:21;89318.69;;;15.01;100.00
46782;BME280;32541;46.298;11.506;2022-08-19T00:42:47;89317.88;;;15.12;100.00
46782;BME280;32541;46.298;11.506;2022-08-19T00:45:18;89327.94;;;15.19;100.00
46782;BME280;32541;46.298;11.506;2022-08-19T00:47:45;89318.78;;;15.03;100.00
46782;BME280;32541;46.298;11.506;2022-08-19T00:50:14;89307.38;;;14.97;100.00
46782;BME280;32541;46.298;11.506;2022-08-19T00:52:43;89294.06;;;14.93;100.00
46782;BME280;32541;46.298;11.506;2022-08-19T00:55:18;89290.78;;;14.97;100.00
46782;BME280;32541;46.298;11.506;2022-08-19T00:57:55;89275.31;;;14.92;100.00
46782;BME280;32541;46.298;11.506;2022-08-19T01:00:22;89265.66;;;14.93;100.00
46782;BME280;32541;46.298;11.506;2022-08-19T01:02:49;89272.22;;;14.86;100.00
46782;BME280;32541;46.298;11.506;2022-08-19T01:05:18;89276.13;;;14.94;100.00
46782;BME280;32541;46.298;11.506;2022-08-19T01:07:46;89282.28;;;14.93;100.00
46782;BME280;32541;46.298;11.506;2022-08-19T01:10:23;89283.50;;;14.90;100.00
46782;BME280;32541;46.298;11.506;2022-08-19T01:12:50;89284.75;;;14.87;100.00
46782;BME280;32541;46.298;11.506;2022-08-19T01:15:19;89269.97;;;14.96;100.00
46782;BME280;32541;46.298;11.506;2022-08-19T01:17:47;89261.03;;;14.97;100.00
46782;BME280;32541;46.298;11.506;2022-08-19T01:20:16;89241.56;;;14.95;100.00
46782;BME280;32541;46.298;11.506;2022-08-19T01:25:18;89211.00;;;15.07;100.00
46782;BME280;32541;46.298;11.506;2022-08-19T01:27:46;89205.25;;;15.17;100.00
46782;BME280;32541;46.298;11.506;2022-08-19T01:30:19;89191.09;;;14.97;100.00
46782;BME280;32541;46.298;11.506;2022-08-19T01:32:45;89180.34;;;15.03;100.00
46782;BME280;32541;46.298;11.506;2022-08-19T01:35:12;89174.91;;;15.05;100.00
46782;BME280;32541;46.298;11.506;2022-08-19T01:37:47;89144.31;;;15.17;100.00
46782;BME280;32541;46.298;11.506;2022-08-19T01:40:12;89101.03;;;15.23;100.00
46782;BME280;32541;46.298;11.506;2022-08-19T01:42:38;89072.84;;;15.13;100.00
46782;BME280;32541;46.298;11.506;2022-08-19T01:45:05;89081.75;;;15.12;100.00
46782;BME280;32541;46.298;11.506;2022-08-19T01:47:31;89117.28;;;15.01;100.00
46782;BME280;32541;46.298;11.506;2022-08-19T01:49:58;89137.63;;;14.65;100.00
46782;BME280;32541;46.298;11.506;2022-08-19T01:52:23;89146.94;;;14.72;100.00
46782;BME280;32541;46.298;11.506;2022-08-19T01:54:48;89156.19;;;14.63;100.00
46782;BME280;32541;46.298;11.506;2022-08-19T01:57:14;89161.72;;;14.63;100.00
46782;BME280;32541;46.298;11.506;2022-08-19T01:59:41;89170.09;;;14.65;100.00
46782;BME280;32541;46.298;11.506;2022-08-19T02:02:07;89173.38;;;14.61;100.00
46782;BME280;32541;46.298;11.506;2022-08-19T02:04:34;89167.75;;;14.59;100.00
46782;BME280;32541;46.298;11.506;2022-08-19T02:07:00;89153.91;;;14.59;100.00
46782;BME280;32541;46.298;11.506;2022-08-19T02:09:25;89133.22;;;14.60;100.00
46782;BME280;32541;46.298;11.506;2022-08-19T02:11:51;89117.75;;;14.69;100.00
46782;BME280;32541;46.298;11.506;2022-08-19T02:14:16;89111.47;;;14.68;100.00
46782;BME280;32541;46.298;11.506;2022-08-19T02:16:42;89125.72;;;14.63;100.00
46782;BME280;32541;46.298;11.506;2022-08-19T02:19:08;89148.38;;;14.73;100.00
46782;BME280;32541;46.298;11.506;2022-08-19T02:21:34;89147.03;;;14.46;100.00
46782;BME280;32541;46.298;11.506;2022-08-19T02:23:59;89145.72;;;14.48;100.00
46782;BME280;32541;46.298;11.506;2022-08-19T02:26:26;89120.41;;;14.53;100.00
46782;BME280;32541;46.298;11.506;2022-08-19T02:28:52;89094.28;;;14.56;100.00
46782;BME280;32541;46.298;11.506;2022-08-19T02:31:21;89080.03;;;14.62;100.00
46782;BME280;32541;46.298;11.506;2022-08-19T02:33:47;89059.91;;;14.75;100.00
46782;BME280;32541;46.298;11.506;2022-08-19T02:36:14;89056.00;;;14.80;100.00
46782;BME280;32541;46.298;11.506;2022-08-19T02:38:40;89016.59;;;14.66;100.00
46782;BME280;32541;46.298;11.506;2022-08-19T02:41:15;89011.69;;;14.51;100.00
46782;BME280;32541;46.298;11.506;2022-08-19T02:43:40;89008.50;;;14.70;100.00
46782;BME280;32541;46.298;11.506;2022-08-19T02:48:43;88991.22;;;14.42;100.00
46782;BME280;32541;46.298;11.506;2022-08-19T02:51:08;88978.34;;;14.33;100.00
46782;BME280;32541;46.298;11.506;2022-08-19T02:53:40;88980.59;;;14.36;100.00
46782;BME280;32541;46.298;11.506;2022-08-19T02:56:07;88960.28;;;14.32;100.00
46782;BME280;32541;46.298;11.506;2022-08-19T02:58:32;88946.03;;;14.51;98.92
46782;BME280;32541;46.298;11.506;2022-08-19T03:00:58;88936.28;;;14.50;98.14
46782;BME280;32541;46.298;11.506;2022-08-19T03:03:23;88947.63;;;14.56;99.73
46782;BME280;32541;46.298;11.506;2022-08-19T03:05:49;88954.19;;;14.49;98.91
46782;BME280;32541;46.298;11.506;2022-08-19T03:08:14;88964.44;;;14.60;97.22
46782;BME280;32541;46.298;11.506;2022-08-19T03:10:45;88943.84;;;14.63;97.37
46782;BME280;32541;46.298;11.506;2022-08-19T03:13:16;88916.03;;;14.61;97.48
46782;BME280;32541;46.298;11.506;2022-08-19T03:15:43;88913.28;;;14.61;97.27
46782;BME280;32541;46.298;11.506;2022-08-19T03:18:10;88911.00;;;14.71;96.29
46782;BME280;32541;46.298;11.506;2022-08-19T03:20:50;88958.03;;;14.71;98.08
46782;BME280;32541;46.298;11.506;2022-08-19T03:23:18;88965.41;;;14.37;100.00
46782;BME280;32541;46.298;11.506;2022-08-19T03:25:47;88962.53;;;14.35;100.00
46782;BME280;32541;46.298;11.506;2022-08-19T03:28:14;88986.41;;;14.42;100.00
46782;BME280;32541;46.298;11.506;2022-08-19T03:30:41;89013.88;;;14.38;100.00
46782;BME280;32541;46.298;11.506;2022-08-19T03:33:08;89003.00;;;14.42;100.00
46782;BME280;32541;46.298;11.506;2022-08-19T03:35:34;88976.06;;;14.29;100.00
46782;BME280;32541;46.298;11.506;2022-08-19T03:38:05;88952.94;;;14.36;100.00
46782;BME280;32541;46.298;11.506;2022-08-19T03:40:32;88933.97;;;14.17;100.00
46782;BME280;32541;46.298;11.506;2022-08-19T03:43:00;88970.44;;;14.27;100.00
46782;BME280;32541;46.298;11.506;2022-08-19T03:45:25;89017.97;;;13.83;100.00
46782;BME280;32541;46.298;11.506;2022-08-19T03:47:52;89010.19;;;13.79;100.00
46782;BME280;32541;46.298;11.506;2022-08-19T03:50:18;88954.72;;;13.89;100.00
46782;BME280;32541;46.298;11.506;2022-08-19T03:52:49;88933.91;;;14.02;100.00
46782;BME280;32541;46.298;11.506;2022-08-19T03:55:15;88972.41;;;13.98;100.00
46782;BME280;32541;46.298;11.506;2022-08-19T03:57:41;89010.72;;;13.89;100.00
46782;BME280;32541;46.298;11.506;2022-08-19T04:00:06;89058.41;;;14.04;100.00
46782;BME280;32541;46.298;11.506;2022-08-19T04:02:33;89079.09;;;14.16;100.00
46782;BME280;32541;46.298;11.506;2022-08-19T04:04:58;89070.41;;;14.22;100.00
46782;BME280;32541;46.298;11.506;2022-08-19T04:07:23;89061.78;;;14.29;100.00
46782;BME280;32541;46.298;11.506;2022-08-19T04:09:49;89066.94;;;14.35;100.00
46782;BME280;32541;46.298;11.506;2022-08-19T04:12:17;89083.09;;;14.40;100.00
46782;BME280;32541;46.298;11.506;2022-08-19T04:14:44;89084.56;;;14.41;100.00
46782;BME280;32541;46.298;11.506;2022-08-19T04:17:09;89096.75;;;14.36;100.00
46782;BME280;32541;46.298;11.506;2022-08-19T04:19:35;89099.31;;;14.32;100.00
46782;BME280;32541;46.298;11.506;2022-08-19T04:22:01;89096.03;;;14.36;100.00
46782;BME280;32541;46.298;11.506;2022-08-19T04:24:26;89095.47;;;14.26;100.00
46782;BME280;32541;46.298;11.506;2022-08-19T04:26:52;89101.22;;;14.16;100.00
46782;BME280;32541;46.298;11.506;2022-08-19T04:29:20;89111.34;;;14.12;100.00
46782;BME280;32541;46.298;11.506;2022-08-19T04:31:48;89112.28;;;14.16;100.00
46782;BME280;32541;46.298;11.506;2022-08-19T04:34:16;89117.69;;;14.14;100.00
46782;BME280;32541;46.298;11.506;2022-08-19T04:36:43;89123.44;;;14.18;100.00
46782;BME280;32541;46.298;11.506;2022-08-19T04:39:17;89131.25;;;14.22;100.00
46782;BME280;32541;46.298;11.506;2022-08-19T04:41:44;89135.31;;;14.21;100.00
46782;BME280;32541;46.298;11.506;2022-08-19T04:44:31;89143.94;;;14.27;100.00
46782;BME280;32541;46.298;11.506;2022-08-19T04:46:56;89145.88;;;14.24;100.00
46782;BME280;32541;46.298;11.506;2022-08-19T04:49:22;89135.53;;;14.25;100.00
46782;BME280;32541;46.298;11.506;2022-08-19T04:51:50;89131.94;;;14.22;100.00
46782;BME280;32541;46.298;11.506;2022-08-19T04:54:17;89154.47;;;14.17;100.00
46782;BME280;32541;46.298;11.506;2022-08-19T04:56:45;89158.16;;;14.21;100.00
46782;BME280;32541;46.298;11.506;2022-08-19T04:59:10;89168.81;;;14.13;100.00
46782;BME280;32541;46.298;11.506;2022-08-19T05:01:36;89164.09;;;14.16;100.00
46782;BME280;32541;46.298;11.506;2022-08-19T05:04:04;89167.78;;;14.20;100.00
46782;BME280;32541;46.298;11.506;2022-08-19T05:06:32;89173.63;;;14.13;100.00
46782;BME280;32541;46.298;11.506;2022-08-19T05:09:03;89180.47;;;14.12;100.00
46782;BME280;32541;46.298;11.506;2022-08-19T05:11:32;89187.72;;;14.05;100.00
46782;BME280;32541;46.298;11.506;2022-08-19T05:13:58;89191.28;;;13.94;100.00
46782;BME280;32541;46.298;11.506;2022-08-19T05:16:25;89195.81;;;14.01;100.00
46782;BME280;32541;46.298;11.506;2022-08-19T05:18:51;89198.25;;;13.95;100.00
46782;BME280;32541;46.298;11.506;2022-08-19T05:21:35;89199.50;;;14.06;100.00
46782;BME280;32541;46.298;11.506;2022-08-19T05:24:20;89199.47;;;13.92;100.00
46782;BME280;32541;46.298;11.506;2022-08-19T05:26:48;89192.00;;;13.95;100.00
46782;BME280;32541;46.298;11.506;2022-08-19T05:29:16;89187.13;;;14.07;100.00
46782;BME280;32541;46.298;11.506;2022-08-19T05:31:43;89197.16;;;14.14;100.00
46782;BME280;32541;46.298;11.506;2022-08-19T05:34:09;89186.94;;;14.16;100.00
46782;BME280;32541;46.298;11.506;2022-08-19T05:36:38;89182.31;;;14.07;100.00
46782;BME280;32541;46.298;11.506;2022-08-19T05:39:06;89179.44;;;14.05;100.00
46782;BME280;32541;46.298;11.506;2022-08-19T05:41:32;89179.94;;;14.02;100.00
46782;BME280;32541;46.298;11.506;2022-08-19T05:43:58;89176.06;;;14.07;100.00
46782;BME280;32541;46.298;11.506;2022-08-19T05:46:23;89180.47;;;14.12;100.00
46782;BME280;32541;46.298;11.506;2022-08-19T05:48:49;89177.72;;;14.12;100.00
46782;BME280;32541;46.298;11.506;2022-08-19T05:51:15;89176.72;;;14.19;100.00
46782;BME280;32541;46.298;11.506;2022-08-19T05:53:42;89168.81;;;14.13;100.00
46782;BME280;32541;46.298;11.506;2022-08-19T05:56:10;89152.00;;;14.09;100.00
46782;BME280;32541;46.298;11.506;2022-08-19T05:58:38;89161.44;;;14.04;100.00
46782;BME280;32541;46.298;11.506;2022-08-19T06:01:09;89168.19;;;14.01;100.00
46782;BME280;32541;46.298;11.506;2022-08-19T06:03:35;89178.44;;;14.12;100.00
46782;BME280;32541;46.298;11.506;2022-08-19T06:06:05;89171.47;;;14.11;100.00
46782;BME280;32541;46.298;11.506;2022-08-19T06:08:31;89163.97;;;14.14;100.00
46782;BME280;32541;46.298;11.506;2022-08-19T06:10:57;89143.94;;;14.13;100.00
46782;BME280;32541;46.298;11.506;2022-08-19T06:13:23;89131.75;;;14.18;100.00
46782;BME280;32541;46.298;11.506;2022-08-19T06:15:49;89128.88;;;14.16;100.00
46782;BME280;32541;46.298;11.506;2022-08-19T06:18:15;89130.28;;;14.17;100.00
46782;BME280;32541;46.298;11.506;2022-08-19T06:20:42;89132.66;;;14.23;100.00
46782;BME280;32541;46.298;11.506;2022-08-19T06:23:07;89134.09;;;14.24;100.00
46782;BME280;32541;46.298;11.506;2022-08-19T06:25:34;89129.16;;;14.22;100.00
46782;BME280;32541;46.298;11.506;2022-08-19T06:27:59;89112.88;;;14.28;100.00
46782;BME280;32541;46.298;11.506;2022-08-19T06:30:25;89118.22;;;14.24;100.00
46782;BME280;32541;46.298;11.506;2022-08-19T06:32:50;89115.56;;;14.26;100.00
46782;BME280;32541;46.298;11.506;2022-08-19T06:35:15;89124.91;;;14.33;100.00
46782;BME280;32541;46.298;11.506;2022-08-19T06:37:41;89113.84;;;14.33;100.00
46782;BME280;32541;46.298;11.506;2022-08-19T06:40:08;89104.63;;;14.42;100.00
46782;BME280;32541;46.298;11.506;2022-08-19T06:42:36;89097.66;;;14.41;100.00
46782;BME280;32541;46.298;11.506;2022-08-19T06:45:05;89102.78;;;14.46;100.00
46782;BME280;32541;46.298;11.506;2022-08-19T06:47:31;89099.09;;;14.56;100.00
46782;BME280;32541;46.298;11.506;2022-08-19T06:49:58;89087.09;;;14.65;100.00
46782;BME280;32541;46.298;11.506;2022-08-19T06:52:27;89093.72;;;14.87;100.00
46782;BME280;32541;46.298;11.506;2022-08-19T06:54:52;89095.41;;;15.08;100.00
46782;BME280;32541;46.298;11.506;2022-08-19T06:57:21;89093.09;;;15.31;99.90
46782;BME280;32541;46.298;11.506;2022-08-19T06:59:46;89088.56;;;15.67;97.57
46782;BME280;32541;46.298;11.506;2022-08-19T07:02:12;89081.50;;;15.80;97.90
46782;BME280;32541;46.298;11.506;2022-08-19T07:04:37;89081.59;;;16.13;94.77
46782;BME280;32541;46.298;11.506;2022-08-19T07:07:10;89098.88;;;16.27;94.57
46782;BME280;32541;46.298;11.506;2022-08-19T07:09:39;89098.25;;;16.44;94.00
46782;BME280;32541;46.298;11.506;2022-08-19T07:12:08;89100.72;;;16.70;93.47
46782;BME280;32541;46.298;11.506;2022-08-19T07:14:36;89114.38;;;16.97;90.93
46782;BME280;32541;46.298;11.506;2022-08-19T07:17:04;89119.78;;;17.10;90.65
46782;BME280;32541;46.298;11.506;2022-08-19T07:19:31;89111.16;;;17.20;86.25
46782;BME280;32541;46.298;11.506;2022-08-19T07:21:57;89100.63;;;17.34;85.26
46782;BME280;32541;46.298;11.506;2022-08-19T07:24:26;89092.75;;;17.46;87.03
46782;BME280;32541;46.298;11.506;2022-08-19T07:26:55;89097.66;;;17.81;87.32
46782;BME280;32541;46.298;11.506;2022-08-19T07:29:30;89112.69;;;18.11;80.49
46782;BME280;32541;46.298;11.506;2022-08-19T07:32:00;89110.41;;;18.06;79.02
46782;BME280;32541;46.298;11.506;2022-08-19T07:34:27;89119.19;;;17.81;79.57
46782;BME280;32541;46.298;11.506;2022-08-19T07:36:54;89111.63;;;17.83;80.01
46782;BME280;32541;46.298;11.506;2022-08-19T07:39:23;89109.78;;;18.07;81.17
46782;BME280;32541;46.298;11.506;2022-08-19T07:41:50;89107.75;;;18.47;82.06
46782;BME280;32541;46.298;11.506;2022-08-19T07:44:18;89098.25;;;18.72;77.03
46782;BME280;32541;46.298;11.506;2022-08-19T07:46:48;89103.78;;;18.92;75.99
46782;BME280;32541;46.298;11.506;2022-08-19T07:49:16;89105.91;;;19.13;76.23
46782;BME280;32541;46.298;11.506;2022-08-19T07:51:55;89113.50;;;19.30;75.98
46782;BME280;32541;46.298;11.506;2022-08-19T07:54:26;89120.63;;;19.35;77.17
46782;BME280;32541;46.298;11.506;2022-08-19T07:56:53;89129.41;;;19.47;74.58
46782;BME280;32541;46.298;11.506;2022-08-19T07:59:20;89135.94;;;18.00;78.22
46782;BME280;32541;46.298;11.506;2022-08-19T08:01:47;89142.03;;;18.32;75.55
46782;BME280;32541;46.298;11.506;2022-08-19T08:04:15;89138.38;;;18.10;75.93
46782;BME280;32541;46.298;11.506;2022-08-19T08:07:00;89130.28;;;18.16;76.34
46782;BME280;32541;46.298;11.506;2022-08-19T08:09:46;89133.28;;;18.22;78.11
46782;BME280;32541;46.298;11.506;2022-08-19T08:12:15;89136.00;;;18.20;76.30
46782;BME280;32541;46.298;11.506;2022-08-19T08:14:45;89133.44;;;18.26;76.49
46782;BME280;32541;46.298;11.506;2022-08-19T08:17:16;89135.16;;;18.35;75.17
46782;BME280;32541;46.298;11.506;2022-08-19T08:19:44;89134.03;;;18.05;77.06
46782;BME280;32541;46.298;11.506;2022-08-19T08:22:16;89133.16;;;17.83;78.77
46782;BME280;32541;46.298;11.506;2022-08-19T08:25:05;89136.00;;;17.67;79.86
46782;BME280;32541;46.298;11.506;2022-08-19T08:27:35;89136.50;;;17.61;80.88
46782;BME280;32541;46.298;11.506;2022-08-19T08:30:03;89121.78;;;17.59;81.29
46782;BME280;32541;46.298;11.506;2022-08-19T08:32:36;89123.16;;;17.75;80.96
46782;BME280;32541;46.298;11.506;2022-08-19T08:35:04;89126.19;;;17.82;81.48
46782;BME280;32541;46.298;11.506;2022-08-19T08:37:30;89122.03;;;17.65;82.01
46782;BME280;32541;46.298;11.506;2022-08-19T08:39:56;89119.97;;;17.65;83.71
46782;BME280;32541;46.298;11.506;2022-08-19T08:42:32;89121.25;;;17.62;85.61
46782;BME280;32541;46.298;11.506;2022-08-19T08:45:04;89123.56;;;17.68;85.11
46782;BME280;32541;46.298;11.506;2022-08-19T08:47:35;89131.63;;;17.11;86.05
46782;BME280;32541;46.298;11.506;2022-08-19T08:50:32;89137.09;;;17.42;85.25
46782;BME280;32541;46.298;11.506;2022-08-19T08:53:01;89145.34;;;17.40;86.33
46782;BME280;32541;46.298;11.506;2022-08-19T08:55:29;89142.94;;;17.66;85.89
46782;BME280;32541;46.298;11.506;2022-08-19T08:58:01;89151.34;;;17.86;83.45
46782;BME280;32541;46.298;11.506;2022-08-19T09:00:31;89164.06;;;17.55;84.89
46782;BME280;32541;46.298;11.506;2022-08-19T09:02:58;89165.13;;;17.82;85.03
46782;BME280;32541;46.298;11.506;2022-08-19T09:05:40;89164.72;;;17.89;84.55
46782;BME280;32541;46.298;11.506;2022-08-19T09:08:24;89157.78;;;18.08;84.72
46782;BME280;32541;46.298;11.506;2022-08-19T09:10:55;89158.34;;;18.22;84.19
46782;BME280;32541;46.298;11.506;2022-08-19T09:16:20;89153.09;;;18.67;80.91
46782;BME280;32541;46.298;11.506;2022-08-19T09:18:57;89145.09;;;18.77;79.28
46782;BME280;32541;46.298;11.506;2022-08-19T09:21:24;89142.94;;;18.96;79.28
46782;BME280;32541;46.298;11.506;2022-08-19T09:23:51;89142.09;;;19.11;78.67
46782;BME280;32541;46.298;11.506;2022-08-19T09:26:19;89131.38;;;19.23;76.33
46782;BME280;32541;46.298;11.506;2022-08-19T09:28:47;89135.25;;;19.55;74.36
46782;BME280;32541;46.298;11.506;2022-08-19T09:31:21;89135.59;;;19.65;74.65
46782;BME280;32541;46.298;11.506;2022-08-19T09:33:48;89130.97;;;19.95;72.24
46782;BME280;32541;46.298;11.506;2022-08-19T09:36:17;89126.00;;;19.70;70.33
46782;BME280;32541;46.298;11.506;2022-08-19T09:38:44;89125.63;;;19.38;72.25
46782;BME280;32541;46.298;11.506;2022-08-19T09:41:15;89124.03;;;19.33;74.55
46782;BME280;32541;46.298;11.506;2022-08-19T09:43:44;89120.47;;;19.51;74.52
46782;BME280;32541;46.298;11.506;2022-08-19T09:46:11;89119.50;;;19.85;74.55
46782;BME280;32541;46.298;11.506;2022-08-19T09:48:39;89120.06;;;19.60;74.68
46782;BME280;32541;46.298;11.506;2022-08-19T09:51:11;89127.16;;;19.63;72.65
46782;BME280;32541;46.298;11.506;2022-08-19T09:53:42;89125.75;;;19.62;70.48
46782;BME280;32541;46.298;11.506;2022-08-19T09:56:09;89124.63;;;19.50;71.03
46782;BME280;32541;46.298;11.506;2022-08-19T09:58:36;89120.47;;;19.51;72.31
46782;BME280;32541;46.298;11.506;2022-08-19T10:01:03;89125.59;;;19.80;72.33
46782;BME280;32541;46.298;11.506;2022-08-19T10:03:30;89127.34;;;19.91;73.26
46782;BME280;32541;46.298;11.506;2022-08-19T10:05:58;89132.03;;;19.63;72.36
46782;BME280;32541;46.298;11.506;2022-08-19T10:08:32;89134.25;;;18.85;73.14
46782;BME280;32541;46.298;11.506;2022-08-19T10:10:59;89132.91;;;19.28;74.57
46782;BME280;32541;46.298;11.506;2022-08-19T10:13:27;89133.63;;;19.70;72.64
46782;BME280;32541;46.298;11.506;2022-08-19T10:15:56;89127.97;;;19.89;72.11
46782;BME280;32541;46.298;11.506;2022-08-19T10:18:24;89135.06;;;19.92;73.18
46782;BME280;32541;46.298;11.506;2022-08-19T10:20:51;89136.16;;;20.05;71.72
46782;BME280;32541;46.298;11.506;2022-08-19T10:23:20;89137.66;;;19.65;73.46
46782;BME280;32541;46.298;11.506;2022-08-19T10:25:46;89125.13;;;19.66;72.66
46782;BME280;32541;46.298;11.506;2022-08-19T10:28:11;89119.31;;;19.79;72.03
46782;BME280;32541;46.298;11.506;2022-08-19T10:30:38;89120.53;;;19.96;72.03
46782;BME280;32541;46.298;11.506;2022-08-19T10:33:05;89110.97;;;20.03;72.20
46782;BME280;32541;46.298;11.506;2022-08-19T10:35:31;89104.56;;;20.44;70.76
46782;BME280;32541;46.298;11.506;2022-08-19T10:37:57;89099.63;;;20.66;68.93
46782;BME280;32541;46.298;11.506;2022-08-19T10:40:26;89110.28;;;20.97;70.30
46782;BME280;32541;46.298;11.506;2022-08-19T10:42:53;89112.28;;;21.19;68.92
46782;BME280;32541;46.298;11.506;2022-08-19T10:45:20;89103.00;;;21.12;70.87
46782;BME280;32541;46.298;11.506;2022-08-19T10:47:50;89101.66;;;20.64;69.80
46782;BME280;32541;46.298;11.506;2022-08-19T10:50:16;89101.59;;;20.16;73.65
46782;BME280;32541;46.298;11.506;2022-08-19T10:53:04;89093.44;;;20.46;71.84
46782;BME280;32541;46.298;11.506;2022-08-19T10:55:30;89105.19;;;20.19;71.08
46782;BME280;32541;46.298;11.506;2022-08-19T10:58:17;89089.84;;;19.53;71.05
46782;BME280;32541;46.298;11.506;2022-08-19T11:00:54;89092.94;;;20.28;67.67
46782;BME280;32541;46.298;11.506;2022-08-19T11:03:21;89087.53;;;20.34;66.26
46782;BME280;32541;46.298;11.506;2022-08-19T11:05:56;89089.47;;;20.08;63.61
46782;BME280;32541;46.298;11.506;2022-08-19T11:08:22;89081.94;;;20.34;65.17
46782;BME280;32541;46.298;11.506;2022-08-19T11:10:47;89090.06;;;20.49;64.58
46782;BME280;32541;46.298;11.506;2022-08-19T11:13:13;89090.56;;;20.68;65.37
46782;BME280;32541;46.298;11.506;2022-08-19T11:15:38;89090.31;;;20.83;65.72
46782;BME280;32541;46.298;11.506;2022-08-19T11:18:04;89098.28;;;20.93;66.33
46782;BME280;32541;46.298;11.506;2022-08-19T11:20:30;89089.28;;;20.96;68.27
46782;BME280;32541;46.298;11.506;2022-08-19T11:22:56;89095.50;;;21.19;67.27
46782;BME280;32541;46.298;11.506;2022-08-19T11:25:21;89084.94;;;21.43;66.34
46782;BME280;32541;46.298;11.506;2022-08-19T11:27:47;89088.09;;;21.57;62.58
46782;BME280;32541;46.298;11.506;2022-08-19T11:30:16;89086.97;;;21.68;63.51
46782;BME280;32541;46.298;11.506;2022-08-19T11:32:42;89085.69;;;22.01;64.02
46782;BME280;32541;46.298;11.506;2022-08-19T11:35:08;89079.50;;;22.06;62.88
46782;BME280;32541;46.298;11.506;2022-08-19T11:37:33;89085.97;;;22.13;62.67
46782;BME280;32541;46.298;11.506;2022-08-19T11:40:04;89082.78;;;22.27;61.65
46782;BME280;32541;46.298;11.506;2022-08-19T11:42:30;89087.97;;;22.40;61.22
46782;BME280;32541;46.298;11.506;2022-08-19T11:45:14;89086.00;;;22.45;61.26
46782;BME280;32541;46.298;11.506;2022-08-19T11:47:39;89069.56;;;22.31;61.58
46782;BME280;32541;46.298;11.506;2022-08-19T11:50:05;89076.03;;;22.38;61.45
46782;BME280;32541;46.298;11.506;2022-08-19T11:52:31;89075.44;;;22.43;62.82
46782;BME280;32541;46.298;11.506;2022-08-19T11:54:56;89073.38;;;22.46;61.23
46782;BME280;32541;46.298;11.506;2022-08-19T11:57:22;89072.31;;;22.61;59.01
46782;BME280;32541;46.298;11.506;2022-08-19T11:59:49;89068.41;;;22.74;57.50
46782;BME280;32541;46.298;11.506;2022-08-19T12:02:15;89075.81;;;22.93;60.46
46782;BME280;32541;46.298;11.506;2022-08-19T12:04:40;89069.50;;;22.61;57.12
46782;BME280;32541;46.298;11.506;2022-08-19T12:07:06;89069.03;;;22.71;58.07
46782;BME280;32541;46.298;11.506;2022-08-19T12:09:31;89067.16;;;22.81;56.21
46782;BME280;32541;46.298;11.506;2022-08-19T12:12:00;89075.66;;;21.92;59.90
46782;BME280;32541;46.298;11.506;2022-08-19T12:14:27;89069.59;;;21.44;62.50
46782;BME280;32541;46.298;11.506;2022-08-19T12:16:55;89067.34;;;21.66;62.21
46782;BME280;32541;46.298;11.506;2022-08-19T12:19:21;89069.25;;;21.87;61.10
46782;BME280;32541;46.298;11.506;2022-08-19T12:21:46;89064.19;;;21.24;61.37
46782;BME280;32541;46.298;11.506;2022-08-19T12:24:13;89067.84;;;21.58;62.75
46782;BME280;32541;46.298;11.506;2022-08-19T12:26:38;89058.50;;;21.48;61.67
46782;BME280;32541;46.298;11.506;2022-08-19T12:29:04;89057.75;;;21.75;62.23
46782;BME280;32541;46.298;11.506;2022-08-19T12:31:30;89061.09;;;21.68;60.50
46782;BME280;32541;46.298;11.506;2022-08-19T12:33:55;89059.81;;;21.73;60.44
46782;BME280;32541;46.298;11.506;2022-08-19T12:36:21;89064.38;;;21.60;61.62
46782;BME280;32541;46.298;11.506;2022-08-19T12:38:48;89062.81;;;21.53;62.45
46782;BME280;32541;46.298;11.506;2022-08-19T12:41:16;89062.75;;;21.79;64.03
46782;BME280;32541;46.298;11.506;2022-08-19T12:43:43;89058.66;;;21.84;63.80
46782;BME280;32541;46.298;11.506;2022-08-19T12:46:10;89057.66;;;21.99;62.22
46782;BME280;32541;46.298;11.506;2022-08-19T12:48:37;89061.19;;;22.01;61.85
46782;BME280;32541;46.298;11.506;2022-08-19T12:51:08;89054.31;;;22.06;61.64
46782;BME280;32541;46.298;11.506;2022-08-19T12:53:35;89053.13;;;22.15;61.32
46782;BME280;32541;46.298;11.506;2022-08-19T12:56:00;89045.00;;;21.68;63.35
46782;BME280;32541;46.298;11.506;2022-08-19T12:58:26;89052.53;;;21.34;62.90